sensor_id;sensor_type;location;lat;lon;timestamp;P1;durP1;ratioP1;P2;durP2;ratioP2
69034;SDS011;56091;55.756;37.412;2022-12-18T00:03:41;13.77;;;5.07;;
69034;SDS011;56091;55.756;37.412;2022-12-18T00:08:45;17.52;;;7.00;;
69034;SDS011;56091;55.756;37.412;2022-12-18T00:13:47;14.93;;;6.53;;
69034;SDS011;56091;55.756;37.412;2022-12-18T00:18:48;15.82;;;6.10;;
69034;SDS011;56091;55.756;37.412;2022-12-18T00:23:50;16.20;;;6.30;;
69034;SDS011;56091;55.756;37.412;2022-12-18T00:28:52;17.60;;;6.72;;
69034;SDS011;56091;55.756;37.412;2022-12-18T00:33:56;21.10;;;7.00;;
69034;SDS011;56091;55.756;37.412;2022-12-18T00:39:03;18.05;;;7.18;;
69034;SDS011;56091;55.756;37.412;2022-12-18T00:44:09;15.90;;;6.63;;
69034;SDS011;56091;55.756;37.412;2022-12-18T00:49:13;16.13;;;6.57;;
69034;SDS011;56091;55.756;37.412;2022-12-18T00:54:18;14.97;;;6.37;;
69034;SDS011;56091;55.756;37.412;2022-12-18T00:59:18;17.13;;;6.60;;
69034;SDS011;56091;55.756;37.412;2022-12-18T01:04:19;18.43;;;5.97;;
69034;SDS011;56091;55.756;37.412;2022-12-18T01:09:20;16.08;;;5.88;;
69034;SDS011;56091;55.756;37.412;2022-12-18T01:14:21;17.87;;;6.50;;
69034;SDS011;56091;55.756;37.412;2022-12-18T01:19:22;14.73;;;5.95;;
69034;SDS011;56091;55.756;37.412;2022-12-18T01:24:24;15.07;;;6.23;;
69034;SDS011;56091;55.756;37.412;2022-12-18T01:29:25;15.35;;;6.28;;
69034;SDS011;56091;55.756;37.412;2022-12-18T01:34:25;15.23;;;6.10;;
69034;SDS011;56091;55.756;37.412;2022-12-18T01:39:26;14.53;;;5.77;;
69034;SDS011;56091;55.756;37.412;2022-12-18T01:50:07;14.53;;;5.60;;
69034;SDS011;56091;55.756;37.412;2022-12-18T01:55:09;14.30;;;5.82;;
69034;SDS011;56091;55.756;37.412;2022-12-18T02:00:15;14.23;;;5.73;;
69034;SDS011;56091;55.756;37.412;2022-12-18T02:05:43;15.18;;;5.80;;
69034;SDS011;56091;55.756;37.412;2022-12-18T02:10:48;14.50;;;5.70;;
69034;SDS011;56091;55.756;37.412;2022-12-18T02:16:19;13.43;;;5.38;;
69034;SDS011;56091;55.756;37.412;2022-12-18T02:26:48;13.40;;;5.35;;
69034;SDS011;56091;55.756;37.412;2022-12-18T02:31:57;13.43;;;5.80;;
69034;SDS011;56091;55.756;37.412;2022-12-18T02:37:01;7.50;;;3.08;;
69034;SDS011;56091;55.756;37.412;2022-12-18T02:42:05;13.00;;;5.00;;
69034;SDS011;56091;55.756;37.412;2022-12-18T02:47:13;12.38;;;5.63;;
69034;SDS011;56091;55.756;37.412;2022-12-18T02:52:29;13.27;;;6.30;;
69034;SDS011;56091;55.756;37.412;2022-12-18T02:57:42;12.38;;;5.20;;
69034;SDS011;56091;55.756;37.412;2022-12-18T03:08:29;10.52;;;4.00;;
69034;SDS011;56091;55.756;37.412;2022-12-18T03:13:37;10.23;;;3.50;;
69034;SDS011;56091;55.756;37.412;2022-12-18T03:18:51;13.25;;;5.13;;
69034;SDS011;56091;55.756;37.412;2022-12-18T03:23:54;8.90;;;3.87;;
69034;SDS011;56091;55.756;37.412;2022-12-18T03:29:03;8.85;;;3.40;;
69034;SDS011;56091;55.756;37.412;2022-12-18T03:34:15;10.03;;;4.10;;
69034;SDS011;56091;55.756;37.412;2022-12-18T03:39:21;9.68;;;3.13;;
69034;SDS011;56091;55.756;37.412;2022-12-18T03:50:24;9.00;;;3.33;;
69034;SDS011;56091;55.756;37.412;2022-12-18T03:55:36;12.83;;;5.30;;
69034;SDS011;56091;55.756;37.412;2022-12-18T04:00:40;13.25;;;4.25;;
69034;SDS011;56091;55.756;37.412;2022-12-18T04:05:45;7.10;;;2.90;;
69034;SDS011;56091;55.756;37.412;2022-12-18T04:10:51;8.00;;;3.22;;
69034;SDS011;56091;55.756;37.412;2022-12-18T04:15:53;12.27;;;4.60;;
69034;SDS011;56091;55.756;37.412;2022-12-18T04:20:58;7.05;;;3.05;;
69034;SDS011;56091;55.756;37.412;2022-12-18T04:25:59;11.87;;;3.67;;
69034;SDS011;56091;55.756;37.412;2022-12-18T04:31:18;12.07;;;4.32;;
69034;SDS011;56091;55.756;37.412;2022-12-18T04:36:19;11.00;;;3.57;;
69034;SDS011;56091;55.756;37.412;2022-12-18T04:41:21;9.50;;;3.72;;
69034;SDS011;56091;55.756;37.412;2022-12-18T04:46:25;11.60;;;4.47;;
69034;SDS011;56091;55.756;37.412;2022-12-18T04:51:28;8.73;;;3.28;;
69034;SDS011;56091;55.756;37.412;2022-12-18T04:56:30;11.97;;;4.77;;
69034;SDS011;56091;55.756;37.412;2022-12-18T05:01:31;13.30;;;4.70;;
69034;SDS011;56091;55.756;37.412;2022-12-18T05:06:32;7.90;;;3.30;;
69034;SDS011;56091;55.756;37.412;2022-12-18T05:11:33;12.30;;;4.17;;
69034;SDS011;56091;55.756;37.412;2022-12-18T05:16:34;12.23;;;4.70;;
69034;SDS011;56091;55.756;37.412;2022-12-18T05:21:34;9.90;;;3.50;;
69034;SDS011;56091;55.756;37.412;2022-12-18T05:26:38;9.88;;;3.53;;
69034;SDS011;56091;55.756;37.412;2022-12-18T05:31:39;9.10;;;3.03;;
69034;SDS011;56091;55.756;37.412;2022-12-18T05:36:39;11.13;;;3.87;;
69034;SDS011;56091;55.756;37.412;2022-12-18T05:41:40;10.93;;;4.32;;
69034;SDS011;56091;55.756;37.412;2022-12-18T05:46:41;8.03;;;2.73;;
69034;SDS011;56091;55.756;37.412;2022-12-18T05:51:42;8.73;;;3.57;;
69034;SDS011;56091;55.756;37.412;2022-12-18T05:56:42;10.98;;;3.83;;
69034;SDS011;56091;55.756;37.412;2022-12-18T06:01:43;12.37;;;4.47;;
69034;SDS011;56091;55.756;37.412;2022-12-18T06:06:53;10.30;;;4.30;;
69034;SDS011;56091;55.756;37.412;2022-12-18T06:11:54;8.53;;;3.00;;
69034;SDS011;56091;55.756;37.412;2022-12-18T06:16:55;7.97;;;2.97;;
69034;SDS011;56091;55.756;37.412;2022-12-18T06:21:55;8.70;;;3.58;;
69034;SDS011;56091;55.756;37.412;2022-12-18T06:26:59;8.03;;;3.40;;
69034;SDS011;56091;55.756;37.412;2022-12-18T06:31:59;8.25;;;3.00;;
69034;SDS011;56091;55.756;37.412;2022-12-18T06:37:00;9.57;;;3.50;;
69034;SDS011;56091;55.756;37.412;2022-12-18T06:42:04;11.57;;;4.55;;
69034;SDS011;56091;55.756;37.412;2022-12-18T06:47:05;11.80;;;4.77;;
69034;SDS011;56091;55.756;37.412;2022-12-18T06:52:06;11.77;;;4.63;;
69034;SDS011;56091;55.756;37.412;2022-12-18T06:57:07;12.98;;;4.43;;
69034;SDS011;56091;55.756;37.412;2022-12-18T07:02:10;13.13;;;4.60;;
69034;SDS011;56091;55.756;37.412;2022-12-18T07:07:12;9.57;;;3.33;;
69034;SDS011;56091;55.756;37.412;2022-12-18T07:12:13;7.90;;;3.40;;
69034;SDS011;56091;55.756;37.412;2022-12-18T07:17:14;14.20;;;4.97;;
69034;SDS011;56091;55.756;37.412;2022-12-18T07:22:15;6.53;;;2.17;;
69034;SDS011;56091;55.756;37.412;2022-12-18T07:27:15;11.53;;;4.00;;
69034;SDS011;56091;55.756;37.412;2022-12-18T07:32:16;10.80;;;3.55;;
69034;SDS011;56091;55.756;37.412;2022-12-18T07:37:17;8.67;;;3.23;;
69034;SDS011;56091;55.756;37.412;2022-12-18T07:42:18;8.40;;;3.28;;
69034;SDS011;56091;55.756;37.412;2022-12-18T07:47:30;6.53;;;2.38;;
69034;SDS011;56091;55.756;37.412;2022-12-18T07:52:37;8.27;;;3.43;;
69034;SDS011;56091;55.756;37.412;2022-12-18T07:57:38;10.70;;;4.22;;
69034;SDS011;56091;55.756;37.412;2022-12-18T08:02:41;8.93;;;2.53;;
69034;SDS011;56091;55.756;37.412;2022-12-18T08:07:42;5.70;;;2.25;;
69034;SDS011;56091;55.756;37.412;2022-12-18T08:12:43;10.90;;;3.03;;
69034;SDS011;56091;55.756;37.412;2022-12-18T08:17:44;9.93;;;3.67;;
69034;SDS011;56091;55.756;37.412;2022-12-18T08:22:45;7.43;;;2.77;;
69034;SDS011;56091;55.756;37.412;2022-12-18T08:27:45;13.52;;;4.35;;
69034;SDS011;56091;55.756;37.412;2022-12-18T08:32:49;14.20;;;4.00;;
69034;SDS011;56091;55.756;37.412;2022-12-18T08:37:52;11.05;;;4.35;;
69034;SDS011;56091;55.756;37.412;2022-12-18T08:42:53;8.60;;;3.27;;
69034;SDS011;56091;55.756;37.412;2022-12-18T08:48:13;11.30;;;4.13;;
69034;SDS011;56091;55.756;37.412;2022-12-18T08:53:13;12.85;;;4.30;;
69034;SDS011;56091;55.756;37.412;2022-12-18T08:58:14;6.07;;;2.47;;
69034;SDS011;56091;55.756;37.412;2022-12-18T09:03:16;10.27;;;3.63;;
69034;SDS011;56091;55.756;37.412;2022-12-18T09:08:19;7.20;;;2.70;;
69034;SDS011;56091;55.756;37.412;2022-12-18T09:13:19;10.23;;;4.20;;
69034;SDS011;56091;55.756;37.412;2022-12-18T09:18:21;11.47;;;4.23;;
69034;SDS011;56091;55.756;37.412;2022-12-18T09:23:23;9.90;;;3.88;;
69034;SDS011;56091;55.756;37.412;2022-12-18T09:28:24;8.70;;;3.60;;
69034;SDS011;56091;55.756;37.412;2022-12-18T09:33:27;8.77;;;3.22;;
69034;SDS011;56091;55.756;37.412;2022-12-18T09:38:28;8.63;;;2.35;;
69034;SDS011;56091;55.756;37.412;2022-12-18T09:43:43;10.27;;;3.70;;
69034;SDS011;56091;55.756;37.412;2022-12-18T09:48:48;8.07;;;3.35;;
69034;SDS011;56091;55.756;37.412;2022-12-18T09:53:55;9.20;;;3.67;;
69034;SDS011;56091;55.756;37.412;2022-12-18T09:59:00;10.05;;;3.13;;
69034;SDS011;56091;55.756;37.412;2022-12-18T10:04:04;10.27;;;3.80;;
69034;SDS011;56091;55.756;37.412;2022-12-18T10:30:57;6.75;;;2.72;;
69034;SDS011;56091;55.756;37.412;2022-12-18T10:35:59;9.73;;;3.23;;
69034;SDS011;56091;55.756;37.412;2022-12-18T10:41:01;6.15;;;2.28;;
69034;SDS011;56091;55.756;37.412;2022-12-18T10:51:08;6.60;;;3.05;;
69034;SDS011;56091;55.756;37.412;2022-12-18T10:56:09;8.87;;;3.50;;
69034;SDS011;56091;55.756;37.412;2022-12-18T11:01:14;7.95;;;2.97;;
69034;SDS011;56091;55.756;37.412;2022-12-18T11:06:21;7.70;;;3.10;;
69034;SDS011;56091;55.756;37.412;2022-12-18T11:11:25;5.78;;;2.40;;
69034;SDS011;56091;55.756;37.412;2022-12-18T11:16:26;10.07;;;3.73;;
69034;SDS011;56091;55.756;37.412;2022-12-18T11:21:29;7.22;;;2.65;;
69034;SDS011;56091;55.756;37.412;2022-12-18T11:26:35;7.60;;;3.43;;
69034;SDS011;56091;55.756;37.412;2022-12-18T11:31:37;7.25;;;2.45;;
69034;SDS011;56091;55.756;37.412;2022-12-18T11:36:42;7.82;;;2.35;;
69034;SDS011;56091;55.756;37.412;2022-12-18T11:41:52;7.27;;;2.67;;
69034;SDS011;56091;55.756;37.412;2022-12-18T11:52:46;4.72;;;1.98;;
69034;SDS011;56091;55.756;37.412;2022-12-18T11:57:53;5.88;;;2.53;;
69034;SDS011;56091;55.756;37.412;2022-12-18T12:08:51;5.85;;;2.85;;
69034;SDS011;56091;55.756;37.412;2022-12-18T12:19:24;6.97;;;2.58;;
69034;SDS011;56091;55.756;37.412;2022-12-18T12:30:29;6.25;;;2.30;;
69034;SDS011;56091;55.756;37.412;2022-12-18T12:41:05;8.82;;;2.70;;
69034;SDS011;56091;55.756;37.412;2022-12-18T12:46:31;6.80;;;1.97;;
69034;SDS011;56091;55.756;37.412;2022-12-18T12:51:38;11.65;;;2.95;;
69034;SDS011;56091;55.756;37.412;2022-12-18T13:01:57;11.27;;;3.60;;
69034;SDS011;56091;55.756;37.412;2022-12-18T13:07:23;9.93;;;3.72;;
69034;SDS011;56091;55.756;37.412;2022-12-18T13:12:29;8.90;;;4.15;;
69034;SDS011;56091;55.756;37.412;2022-12-18T13:17:48;13.20;;;4.47;;
69034;SDS011;56091;55.756;37.412;2022-12-18T13:22:49;16.65;;;4.47;;
69034;SDS011;56091;55.756;37.412;2022-12-18T13:27:55;15.45;;;4.65;;
69034;SDS011;56091;55.756;37.412;2022-12-18T13:38:34;16.95;;;4.25;;
69034;SDS011;56091;55.756;37.412;2022-12-18T13:43:41;13.65;;;4.75;;
69034;SDS011;56091;55.756;37.412;2022-12-18T13:48:49;17.67;;;4.35;;
69034;SDS011;56091;55.756;37.412;2022-12-18T13:53:54;33.22;;;4.40;;
69034;SDS011;56091;55.756;37.412;2022-12-18T14:04:30;11.40;;;4.00;;
69034;SDS011;56091;55.756;37.412;2022-12-18T14:09:36;10.53;;;3.60;;
69034;SDS011;56091;55.756;37.412;2022-12-18T14:14:44;12.35;;;3.47;;
69034;SDS011;56091;55.756;37.412;2022-12-18T14:19:48;4.80;;;1.93;;
69034;SDS011;56091;55.756;37.412;2022-12-18T14:25:06;13.48;;;3.95;;
69034;SDS011;56091;55.756;37.412;2022-12-18T14:35:27;8.25;;;2.55;;
69034;SDS011;56091;55.756;37.412;2022-12-18T14:40:30;7.03;;;2.27;;
69034;SDS011;56091;55.756;37.412;2022-12-18T14:45:40;11.55;;;3.40;;
69034;SDS011;56091;55.756;37.412;2022-12-18T14:50:53;7.33;;;2.77;;
69034;SDS011;56091;55.756;37.412;2022-12-18T14:56:13;10.85;;;4.00;;
69034;SDS011;56091;55.756;37.412;2022-12-18T15:01:24;11.13;;;3.43;;
69034;SDS011;56091;55.756;37.412;2022-12-18T15:16:42;8.68;;;3.35;;
69034;SDS011;56091;55.756;37.412;2022-12-18T15:21:43;6.80;;;2.63;;
69034;SDS011;56091;55.756;37.412;2022-12-18T15:26:44;6.93;;;2.22;;
69034;SDS011;56091;55.756;37.412;2022-12-18T15:31:45;7.27;;;3.10;;
69034;SDS011;56091;55.756;37.412;2022-12-18T15:37:03;7.70;;;2.40;;
69034;SDS011;56091;55.756;37.412;2022-12-18T15:42:04;9.83;;;3.30;;
69034;SDS011;56091;55.756;37.412;2022-12-18T15:47:23;8.77;;;3.15;;
69034;SDS011;56091;55.756;37.412;2022-12-18T15:52:24;11.10;;;2.97;;
69034;SDS011;56091;55.756;37.412;2022-12-18T15:57:26;4.97;;;2.08;;
69034;SDS011;56091;55.756;37.412;2022-12-18T16:02:27;9.80;;;3.17;;
69034;SDS011;56091;55.756;37.412;2022-12-18T16:07:37;6.57;;;2.55;;
69034;SDS011;56091;55.756;37.412;2022-12-18T16:12:38;8.30;;;2.80;;
69034;SDS011;56091;55.756;37.412;2022-12-18T16:17:39;7.47;;;2.38;;
69034;SDS011;56091;55.756;37.412;2022-12-18T16:22:41;7.60;;;2.40;;
69034;SDS011;56091;55.756;37.412;2022-12-18T16:27:43;6.75;;;2.17;;
69034;SDS011;56091;55.756;37.412;2022-12-18T16:32:44;8.37;;;2.77;;
69034;SDS011;56091;55.756;37.412;2022-12-18T16:37:45;7.37;;;2.77;;
69034;SDS011;56091;55.756;37.412;2022-12-18T16:42:46;10.32;;;2.60;;
69034;SDS011;56091;55.756;37.412;2022-12-18T16:47:47;8.20;;;3.40;;
69034;SDS011;56091;55.756;37.412;2022-12-18T16:52:48;11.07;;;3.70;;
69034;SDS011;56091;55.756;37.412;2022-12-18T16:57:48;7.73;;;3.03;;
69034;SDS011;56091;55.756;37.412;2022-12-18T17:02:49;12.03;;;3.87;;
69034;SDS011;56091;55.756;37.412;2022-12-18T17:07:54;9.02;;;4.07;;
69034;SDS011;56091;55.756;37.412;2022-12-18T17:12:54;7.13;;;2.90;;
69034;SDS011;56091;55.756;37.412;2022-12-18T17:17:59;9.43;;;3.63;;
69034;SDS011;56091;55.756;37.412;2022-12-18T17:23:00;7.93;;;2.80;;
69034;SDS011;56091;55.756;37.412;2022-12-18T17:28:00;12.10;;;4.30;;
69034;SDS011;56091;55.756;37.412;2022-12-18T17:33:01;8.18;;;3.17;;
69034;SDS011;56091;55.756;37.412;2022-12-18T17:38:02;10.67;;;2.80;;
69034;SDS011;56091;55.756;37.412;2022-12-18T17:43:03;8.18;;;2.80;;
69034;SDS011;56091;55.756;37.412;2022-12-18T17:48:04;9.60;;;3.43;;
69034;SDS011;56091;55.756;37.412;2022-12-18T17:53:06;10.25;;;3.97;;
69034;SDS011;56091;55.756;37.412;2022-12-18T17:58:07;7.90;;;3.30;;
69034;SDS011;56091;55.756;37.412;2022-12-18T18:03:08;13.30;;;3.83;;
69034;SDS011;56091;55.756;37.412;2022-12-18T18:08:09;10.60;;;4.30;;
69034;SDS011;56091;55.756;37.412;2022-12-18T18:13:16;7.67;;;3.20;;
69034;SDS011;56091;55.756;37.412;2022-12-18T18:18:39;7.65;;;2.83;;
69034;SDS011;56091;55.756;37.412;2022-12-18T18:23:40;14.40;;;4.27;;
69034;SDS011;56091;55.756;37.412;2022-12-18T18:28:41;12.20;;;4.60;;
69034;SDS011;56091;55.756;37.412;2022-12-18T18:33:42;13.83;;;4.07;;
69034;SDS011;56091;55.756;37.412;2022-12-18T18:38:42;10.50;;;3.33;;
69034;SDS011;56091;55.756;37.412;2022-12-18T18:43:43;12.05;;;3.90;;
69034;SDS011;56091;55.756;37.412;2022-12-18T18:48:44;8.17;;;4.13;;
69034;SDS011;56091;55.756;37.412;2022-12-18T18:53:46;14.85;;;5.10;;
69034;SDS011;56091;55.756;37.412;2022-12-18T18:58:47;11.00;;;4.67;;
69034;SDS011;56091;55.756;37.412;2022-12-18T19:03:48;15.50;;;5.35;;
69034;SDS011;56091;55.756;37.412;2022-12-18T19:08:49;11.63;;;5.20;;
69034;SDS011;56091;55.756;37.412;2022-12-18T19:13:57;10.38;;;4.00;;
69034;SDS011;56091;55.756;37.412;2022-12-18T19:19:05;14.93;;;5.13;;
69034;SDS011;56091;55.756;37.412;2022-12-18T19:24:07;22.25;;;4.00;;
69034;SDS011;56091;55.756;37.412;2022-12-18T19:29:09;12.87;;;3.70;;
69034;SDS011;56091;55.756;37.412;2022-12-18T19:34:11;23.52;;;6.38;;
69034;SDS011;56091;55.756;37.412;2022-12-18T19:39:15;22.27;;;5.53;;
69034;SDS011;56091;55.756;37.412;2022-12-18T19:44:18;24.50;;;7.13;;
69034;SDS011;56091;55.756;37.412;2022-12-18T19:49:20;14.50;;;5.57;;
69034;SDS011;56091;55.756;37.412;2022-12-18T19:54:20;15.80;;;4.50;;
69034;SDS011;56091;55.756;37.412;2022-12-18T19:59:21;12.57;;;5.43;;
69034;SDS011;56091;55.756;37.412;2022-12-18T20:04:26;14.77;;;4.90;;
69034;SDS011;56091;55.756;37.412;2022-12-18T20:09:27;15.40;;;5.53;;
69034;SDS011;56091;55.756;37.412;2022-12-18T20:14:27;12.77;;;4.53;;
69034;SDS011;56091;55.756;37.412;2022-12-18T20:19:28;18.20;;;5.25;;
69034;SDS011;56091;55.756;37.412;2022-12-18T20:24:29;24.23;;;6.73;;
69034;SDS011;56091;55.756;37.412;2022-12-18T20:29:31;18.40;;;5.97;;
69034;SDS011;56091;55.756;37.412;2022-12-18T20:34:32;18.67;;;6.13;;
69034;SDS011;56091;55.756;37.412;2022-12-18T20:39:33;11.90;;;4.87;;
69034;SDS011;56091;55.756;37.412;2022-12-18T20:44:34;18.88;;;4.90;;
69034;SDS011;56091;55.756;37.412;2022-12-18T20:49:37;15.93;;;5.47;;
69034;SDS011;56091;55.756;37.412;2022-12-18T20:54:38;13.25;;;4.60;;
69034;SDS011;56091;55.756;37.412;2022-12-18T20:59:39;15.03;;;6.07;;
69034;SDS011;56091;55.756;37.412;2022-12-18T21:04:42;22.43;;;6.30;;
69034;SDS011;56091;55.756;37.412;2022-12-18T21:09:43;14.80;;;4.80;;
69034;SDS011;56091;55.756;37.412;2022-12-18T21:14:43;12.73;;;4.27;;
69034;SDS011;56091;55.756;37.412;2022-12-18T21:19:44;11.88;;;4.72;;
69034;SDS011;56091;55.756;37.412;2022-12-18T21:24:45;13.88;;;4.45;;
69034;SDS011;56091;55.756;37.412;2022-12-18T21:29:46;11.57;;;4.13;;
69034;SDS011;56091;55.756;37.412;2022-12-18T21:34:47;10.93;;;3.42;;
69034;SDS011;56091;55.756;37.412;2022-12-18T21:39:48;8.83;;;3.17;;
69034;SDS011;56091;55.756;37.412;2022-12-18T21:44:50;11.20;;;3.53;;
69034;SDS011;56091;55.756;37.412;2022-12-18T21:49:51;7.25;;;3.00;;
69034;SDS011;56091;55.756;37.412;2022-12-18T21:54:52;7.93;;;4.03;;
69034;SDS011;56091;55.756;37.412;2022-12-18T21:59:53;11.60;;;3.55;;
69034;SDS011;56091;55.756;37.412;2022-12-18T22:05:01;5.43;;;2.10;;
69034;SDS011;56091;55.756;37.412;2022-12-18T22:10:07;8.98;;;2.92;;
69034;SDS011;56091;55.756;37.412;2022-12-18T22:15:09;7.63;;;3.13;;
69034;SDS011;56091;55.756;37.412;2022-12-18T22:20:14;9.90;;;3.72;;
69034;SDS011;56091;55.756;37.412;2022-12-18T22:25:15;10.13;;;3.13;;
69034;SDS011;56091;55.756;37.412;2022-12-18T22:30:16;8.82;;;3.10;;
69034;SDS011;56091;55.756;37.412;2022-12-18T22:35:17;9.70;;;3.20;;
69034;SDS011;56091;55.756;37.412;2022-12-18T22:40:18;10.30;;;2.90;;
69034;SDS011;56091;55.756;37.412;2022-12-18T22:45:26;8.13;;;2.50;;
69034;SDS011;56091;55.756;37.412;2022-12-18T22:50:27;8.23;;;3.10;;
69034;SDS011;56091;55.756;37.412;2022-12-18T22:55:27;8.85;;;3.13;;
69034;SDS011;56091;55.756;37.412;2022-12-18T23:00:28;5.87;;;2.43;;
69034;SDS011;56091;55.756;37.412;2022-12-18T23:05:29;5.80;;;2.27;;
69034;SDS011;56091;55.756;37.412;2022-12-18T23:10:37;9.95;;;3.28;;
69034;SDS011;56091;55.756;37.412;2022-12-18T23:15:41;10.77;;;3.53;;
69034;SDS011;56091;55.756;37.412;2022-12-18T23:20:42;7.93;;;2.28;;
69034;SDS011;56091;55.756;37.412;2022-12-18T23:25:45;6.73;;;2.40;;
69034;SDS011;56091;55.756;37.412;2022-12-18T23:30:48;8.13;;;2.17;;
69034;SDS011;56091;55.756;37.412;2022-12-18T23:35:49;8.10;;;3.00;;
69034;SDS011;56091;55.756;37.412;2022-12-18T23:40:50;6.23;;;2.00;;
69034;SDS011;56091;55.756;37.412;2022-12-18T23:45:51;4.00;;;1.45;;
69034;SDS011;56091;55.756;37.412;2022-12-18T23:50:52;7.20;;;2.60;;
69034;SDS011;56091;55.756;37.412;2022-12-18T23:55:53;9.05;;;2.53;;
